Time;durP1;ratioP1;P1;durP2;ratioP2;P2;SDS_P1;SDS_P2;PMS_P1;PMS_P2;Temp;Humidity;BMP_temperature;BMP_pressure;BME280_temperature;BME280_humidity;BME280_pressure;Samples;Min_cycle;Max_cycle;Signal;HPM_P1;HPM_P2
2022/07/19 00:01:27;;;;;;;9.43;7.85;;;23.40;59.30;;;;;;5114203;28;20051;-73
2022/07/19 00:03:53;;;;;;;8.90;7.57;;;23.20;59.40;;;;;;5113901;28;20040;-74
2022/07/19 00:06:19;;;;;;;10.13;7.93;;;23.20;59.80;;;;;;5114310;28;20031;-73
2022/07/19 00:08:44;;;;;;;10.20;7.20;;;23.30;60.00;;;;;;5114091;28;20050;-73
2022/07/19 00:11:10;;;;;;;8.55;7.63;;;23.30;60.00;;;;;;5114049;28;20028;-73
2022/07/19 00:13:36;;;;;;;9.65;7.75;;;23.20;59.50;;;;;;5114024;28;20039;-73
2022/07/19 00:16:01;;;;;;;12.20;7.68;;;23.20;60.00;;;;;;5113973;28;20107;-73
2022/07/19 00:18:27;;;;;;;10.45;8.20;;;23.10;59.90;;;;;;5113922;28;20016;-73
2022/07/19 00:20:52;;;;;;;12.02;7.80;;;23.10;60.40;;;;;;5113557;28;20043;-73
2022/07/19 00:23:19;;;;;;;11.70;8.57;;;23.10;60.80;;;;;;5113864;28;20047;-73
2022/07/19 00:25:44;;;;;;;9.50;8.52;;;23.10;61.10;;;;;;5113748;28;20495;-73
2022/07/19 00:28:10;;;;;;;9.75;8.18;;;23.00;60.40;;;;;;5113734;28;20043;-73
2022/07/19 00:30:36;;;;;;;13.30;7.93;;;23.00;60.50;;;;;;5095888;28;20024;-73
2022/07/19 00:33:04;;;;;;;9.35;8.35;;;23.00;60.80;;;;;;5113749;28;20035;-73
2022/07/19 00:35:30;;;;;;;13.93;8.63;;;23.00;61.40;;;;;;5113727;28;20021;-73
2022/07/19 00:37:55;;;;;;;10.73;8.18;;;23.00;61.30;;;;;;5113828;28;20059;-73
2022/07/19 00:40:24;;;;;;;11.45;8.45;;;22.90;61.20;;;;;;5113654;28;20083;-73
2022/07/19 00:42:51;;;;;;;11.38;8.40;;;22.80;61.70;;;;;;5113583;28;20020;-73
2022/07/19 00:45:17;;;;;;;11.60;8.48;;;22.80;60.50;;;;;;5113489;28;20028;-73
2022/07/19 00:47:43;;;;;;;10.05;8.32;;;22.80;60.50;;;;;;5113692;28;20028;-73
2022/07/19 00:50:09;;;;;;;11.13;8.43;;;22.70;60.90;;;;;;5113546;28;20032;-73
2022/07/19 00:52:36;;;;;;;10.65;8.13;;;22.50;61.10;;;;;;5113496;28;20032;-73
2022/07/19 00:55:02;;;;;;;11.43;8.45;;;22.40;62.60;;;;;;5113498;28;20024;-73
2022/07/19 00:57:31;;;;;;;9.73;7.93;;;22.50;62.70;;;;;;5113486;28;20047;-73
2022/07/19 00:59:57;;;;;;;10.23;8.88;;;22.60;62.50;;;;;;5113413;28;20021;-73
2022/07/19 01:02:24;;;;;;;9.45;8.52;;;22.70;63.20;;;;;;5095518;28;20482;-73
2022/07/19 01:04:50;;;;;;;10.95;9.32;;;22.80;62.00;;;;;;5113146;28;20040;-73
2022/07/19 01:07:15;;;;;;;12.98;9.45;;;22.80;61.80;;;;;;5113560;28;20094;-73
2022/07/19 01:09:41;;;;;;;10.98;9.10;;;22.70;62.00;;;;;;5095552;28;20028;-73
2022/07/19 01:12:08;;;;;;;10.95;9.32;;;22.70;61.70;;;;;;5113338;28;20513;-73
2022/07/19 01:14:35;;;;;;;12.77;9.55;;;22.70;61.70;;;;;;5113305;28;20054;-73
2022/07/19 01:17:02;;;;;;;12.68;8.77;;;22.70;61.30;;;;;;5078834;28;20024;-73
2022/07/19 01:19:28;;;;;;;12.00;8.70;;;22.60;61.60;;;;;;5113227;28;20028;-73
2022/07/19 01:21:53;;;;;;;11.63;9.38;;;22.40;61.40;;;;;;5095372;28;20040;-73
2022/07/19 01:24:19;;;;;;;11.00;8.95;;;22.20;61.80;;;;;;5113147;28;20036;-73
2022/07/19 01:26:45;;;;;;;10.65;9.55;;;22.10;62.30;;;;;;5113215;28;20475;-73
2022/07/19 01:29:17;;;;;;;13.13;9.38;;;22.20;62.80;;;;;;5095216;28;20029;-74
2022/07/19 01:31:43;;;;;;;9.75;8.75;;;22.30;62.30;;;;;;5113157;28;20021;-73
2022/07/19 01:34:08;;;;;;;11.60;9.88;;;22.30;62.00;;;;;;5097944;28;20024;-73
2022/07/19 01:36:35;;;;;;;11.57;9.07;;;22.40;62.40;;;;;;5117033;28;20040;-73
2022/07/19 01:39:01;;;;;;;11.18;9.38;;;22.30;62.40;;;;;;5116995;28;20034;-73
2022/07/19 01:41:26;;;;;;;12.50;9.30;;;22.40;62.50;;;;;;5116931;28;20028;-73
2022/07/19 01:43:52;;;;;;;11.27;9.30;;;22.40;62.20;;;;;;5116931;28;20024;-73
2022/07/19 01:46:17;;;;;;;10.15;8.98;;;22.50;62.30;;;;;;5116823;28;20028;-73
2022/07/19 01:48:43;;;;;;;11.73;9.07;;;22.40;61.50;;;;;;5098820;28;20046;-73
2022/07/19 01:51:09;;;;;;;13.30;9.68;;;22.20;61.80;;;;;;5098819;28;20109;-73
2022/07/19 01:53:34;;;;;;;12.20;9.77;;;22.20;62.40;;;;;;5116707;28;20032;-73
2022/07/19 01:56:03;;;;;;;12.20;10.07;;;22.30;62.60;;;;;;5116659;28;20044;-73
2022/07/19 01:58:29;;;;;;;10.68;9.55;;;22.20;63.20;;;;;;5116578;28;20050;-73
2022/07/19 02:00:54;;;;;;;13.05;10.13;;;22.00;63.20;;;;;;5116564;28;20091;-73
2022/07/19 02:03:20;;;;;;;12.85;10.50;;;21.90;63.20;;;;;;5098664;28;20028;-74
2022/07/19 02:05:47;;;;;;;11.52;10.27;;;21.80;64.20;;;;;;5116366;28;20048;-73
2022/07/19 02:08:13;;;;;;;12.30;9.85;;;21.90;64.60;;;;;;5098557;28;20036;-73
2022/07/19 02:10:39;;;;;;;11.52;9.73;;;21.90;64.00;;;;;;5116374;28;20024;-73
2022/07/19 02:13:05;;;;;;;11.88;9.35;;;22.00;63.70;;;;;;5116351;28;20153;-73
2022/07/19 02:15:30;;;;;;;11.27;9.30;;;22.00;63.80;;;;;;5098373;28;20032;-73
2022/07/19 02:17:56;;;;;;;11.25;9.70;;;21.90;63.80;;;;;;5116212;28;20039;-73
2022/07/19 02:20:22;;;;;;;10.68;9.57;;;21.90;63.90;;;;;;5116203;28;20024;-73
2022/07/19 02:22:48;;;;;;;13.73;10.00;;;21.90;63.30;;;;;;5116120;28;20035;-73
2022/07/19 02:25:13;;;;;;;20.77;9.77;;;22.00;63.20;;;;;;5116021;28;20034;-73
2022/07/19 02:27:39;;;;;;;11.43;9.52;;;22.00;63.10;;;;;;5116052;28;20051;-73
2022/07/19 02:30:06;;;;;;;11.70;9.45;;;21.90;62.70;;;;;;5097936;28;20110;-73
2022/07/19 02:32:32;;;;;;;11.93;9.13;;;21.90;62.90;;;;;;5098331;28;20028;-73
2022/07/19 02:34:58;;;;;;;12.00;9.55;;;21.80;62.80;;;;;;5115949;28;20038;-73
2022/07/19 02:37:27;;;;;;;10.20;9.20;;;21.70;63.30;;;;;;5116009;28;20020;-73
2022/07/19 02:39:52;;;;;;;11.23;9.52;;;21.50;63.60;;;;;;5098010;28;20028;-73
2022/07/19 02:42:18;;;;;;;11.73;9.35;;;21.50;64.50;;;;;;5115755;28;20085;-73
2022/07/19 02:44:43;;;;;;;12.70;9.45;;;21.40;64.10;;;;;;5115413;28;20032;-73
2022/07/19 02:47:09;;;;;;;10.98;9.77;;;21.50;64.50;;;;;;5115810;28;20036;-73
2022/07/19 02:49:34;;;;;;;16.35;9.70;;;21.50;64.50;;;;;;5097867;28;20036;-73
2022/07/19 02:52:00;;;;;;;14.15;10.00;;;21.40;64.50;;;;;;5115709;28;20024;-73
2022/07/19 02:54:25;;;;;;;13.20;10.43;;;21.40;64.90;;;;;;5115537;28;20036;-73
2022/07/19 02:56:51;;;;;;;10.93;9.27;;;21.50;65.00;;;;;;5115493;28;20032;-73
2022/07/19 02:59:17;;;;;;;10.57;9.48;;;21.40;65.30;;;;;;5080821;28;20035;-73
2022/07/19 03:01:42;;;;;;;12.18;9.35;;;21.40;65.50;;;;;;5115413;28;20032;-73
2022/07/19 03:04:08;;;;;;;12.93;9.85;;;21.40;65.00;;;;;;5080604;28;20039;-73
2022/07/19 03:06:33;;;;;;;13.38;9.73;;;21.50;65.80;;;;;;5097486;28;20503;-73
2022/07/19 03:08:59;;;;;;;12.90;10.30;;;21.40;64.80;;;;;;5115243;28;20044;-73
2022/07/19 03:11:25;;;;;;;11.57;10.13;;;21.40;65.00;;;;;;5097318;28;20024;-73
2022/07/19 03:13:50;;;;;;;11.48;10.35;;;21.40;64.80;;;;;;5115135;28;20032;-73
2022/07/19 03:16:16;;;;;;;15.20;10.48;;;21.40;64.70;;;;;;5097310;28;20035;-73
2022/07/19 03:18:42;;;;;;;11.13;9.60;;;21.40;64.70;;;;;;5115079;28;20012;-73
2022/07/19 03:21:08;;;;;;;11.65;10.10;;;21.40;64.70;;;;;;5115035;28;20020;-73
2022/07/19 03:23:36;;;;;;;12.18;9.88;;;21.40;64.70;;;;;;5114971;28;20110;-74
2022/07/19 03:26:04;;;;;;;11.75;10.30;;;21.30;64.60;;;;;;5114890;28;20030;-73
2022/07/19 03:28:29;;;;;;;12.82;10.10;;;21.30;64.70;;;;;;5096944;28;20044;-73
2022/07/19 03:30:55;;;;;;;13.98;10.30;;;21.40;64.50;;;;;;5114821;28;20020;-73
2022/07/19 03:33:21;;;;;;;11.02;9.93;;;21.30;64.50;;;;;;5096924;28;20016;-73
2022/07/19 03:35:47;;;;;;;11.88;10.25;;;21.30;64.80;;;;;;5114717;28;20070;-73
2022/07/19 03:38:15;;;;;;;11.57;10.43;;;21.20;65.00;;;;;;5114667;28;20401;-73
2022/07/19 03:40:40;;;;;;;13.60;10.80;;;21.20;65.30;;;;;;5096728;28;20024;-73
2022/07/19 03:43:06;;;;;;;14.02;11.25;;;21.20;65.30;;;;;;5114610;28;20036;-73
2022/07/19 03:45:33;;;;;;;14.48;11.20;;;21.20;65.00;;;;;;5114464;28;20032;-74
2022/07/19 03:47:58;;;;;;;13.15;11.02;;;21.20;65.90;;;;;;5096468;28;20058;-73
2022/07/19 03:50:24;;;;;;;14.85;10.77;;;21.20;65.20;;;;;;5096704;28;20024;-73
2022/07/19 03:52:49;;;;;;;15.93;12.20;;;21.10;65.20;;;;;;5096479;28;20028;-73
2022/07/19 03:55:15;;;;;;;11.82;10.57;;;21.00;65.40;;;;;;5113960;28;20031;-73
2022/07/19 03:57:41;;;;;;;13.43;11.60;;;20.90;65.70;;;;;;5114106;28;20028;-73
2022/07/19 04:00:07;;;;;;;14.73;11.50;;;21.00;66.20;;;;;;5096391;28;20043;-73
2022/07/19 04:02:32;;;;;;;14.40;11.73;;;21.00;66.00;;;;;;5096329;28;20095;-73
2022/07/19 04:04:58;;;;;;;12.90;11.48;;;21.00;66.10;;;;;;5113922;28;20380;-73
2022/07/19 04:07:24;;;;;;;14.88;12.10;;;20.90;66.10;;;;;;5096294;28;20035;-73
2022/07/19 04:09:49;;;;;;;15.02;11.98;;;20.90;66.20;;;;;;5096265;28;20024;-73
2022/07/19 04:12:15;;;;;;;14.10;10.95;;;21.00;66.00;;;;;;5114062;28;20032;-73
2022/07/19 04:14:40;;;;;;;15.95;10.88;;;21.00;65.50;;;;;;5096203;28;20039;-73
2022/07/19 04:17:07;;;;;;;16.27;11.40;;;21.00;65.20;;;;;;5113966;28;20032;-73
2022/07/19 04:19:33;;;;;;;14.60;11.30;;;21.00;65.70;;;;;;5114026;28;20071;-73
2022/07/19 04:21:59;;;;;;;13.75;10.85;;;21.10;65.80;;;;;;5113922;28;20051;-73
2022/07/19 04:24:24;;;;;;;14.15;11.63;;;21.00;65.50;;;;;;5095861;28;20105;-73
2022/07/19 04:26:50;;;;;;;11.38;10.13;;;21.00;65.40;;;;;;5079109;28;20028;-73
2022/07/19 04:29:15;;;;;;;13.82;10.70;;;21.00;65.30;;;;;;5113780;28;20055;-73
2022/07/19 04:31:41;;;;;;;12.98;10.68;;;20.90;65.60;;;;;;5113795;28;20032;-73
2022/07/19 04:34:06;;;;;;;14.93;11.27;;;20.80;66.00;;;;;;5113862;28;20048;-73
2022/07/19 04:36:32;;;;;;;12.77;10.40;;;20.90;66.40;;;;;;5113702;28;20036;-73
2022/07/19 04:38:58;;;;;;;13.38;10.48;;;20.90;66.40;;;;;;5113665;28;20028;-73
2022/07/19 04:41:23;;;;;;;12.80;11.10;;;20.90;66.20;;;;;;5079015;28;20123;-73
2022/07/19 04:43:49;;;;;;;11.93;10.52;;;21.00;66.40;;;;;;5113530;28;20032;-73
2022/07/19 04:46:14;;;;;;;11.45;10.30;;;20.90;66.40;;;;;;5095722;28;20035;-73
2022/07/19 04:48:41;;;;;;;12.07;10.32;;;20.90;66.90;;;;;;5113733;28;20027;-73
2022/07/19 04:51:07;;;;;;;12.18;9.98;;;20.80;67.30;;;;;;5113502;28;20027;-73
2022/07/19 04:53:32;;;;;;;12.90;10.40;;;20.80;66.90;;;;;;5113539;28;20046;-73
2022/07/19 04:55:58;;;;;;;12.88;10.98;;;20.80;66.80;;;;;;5095883;28;20024;-73
2022/07/19 04:58:24;;;;;;;12.45;10.77;;;20.80;67.20;;;;;;5113465;28;20028;-73
2022/07/19 05:00:49;;;;;;;13.30;11.05;;;20.90;67.50;;;;;;5095555;28;20057;-73
2022/07/19 05:03:15;;;;;;;12.30;10.45;;;20.90;67.70;;;;;;5113564;28;20032;-73
2022/07/19 05:05:40;;;;;;;12.57;10.07;;;21.00;67.80;;;;;;5113196;28;20048;-73
2022/07/19 05:08:06;;;;;;;12.40;10.20;;;20.90;67.90;;;;;;5098398;28;20029;-73
2022/07/19 05:10:32;;;;;;;11.70;9.88;;;21.00;68.00;;;;;;5117484;28;20028;-73
2022/07/19 05:12:58;;;;;;;13.50;10.15;;;21.10;67.60;;;;;;5117482;28;20036;-73
2022/07/19 05:15:23;;;;;;;11.65;9.70;;;21.30;67.20;;;;;;5099559;28;20027;-73
2022/07/19 05:17:49;;;;;;;12.95;9.95;;;21.40;66.80;;;;;;5117452;28;20363;-73
2022/07/19 05:20:16;;;;;;;11.57;9.30;;;21.50;66.60;;;;;;5099558;28;20032;-73
2022/07/19 05:22:42;;;;;;;13.45;9.95;;;21.60;66.70;;;;;;5117340;28;20024;-73
2022/07/19 05:25:09;;;;;;;13.80;9.73;;;21.60;66.70;;;;;;5117237;28;20028;-73
2022/07/19 05:27:35;;;;;;;11.98;10.45;;;21.60;66.50;;;;;;5117212;28;20030;-73
2022/07/19 05:30:01;;;;;;;16.30;10.18;;;21.60;66.60;;;;;;5117093;28;20028;-73
2022/07/19 05:32:26;;;;;;;11.38;10.23;;;21.70;66.30;;;;;;5099154;28;20032;-73
2022/07/19 05:34:52;;;;;;;15.93;10.60;;;21.70;65.40;;;;;;5117105;28;20046;-73
2022/07/19 05:37:18;;;;;;;14.95;10.27;;;21.70;65.70;;;;;;5117036;28;20075;-73
2022/07/19 05:39:43;;;;;;;12.18;9.18;;;21.80;65.60;;;;;;5116987;28;20467;-73
2022/07/19 05:42:09;;;;;;;12.15;10.00;;;21.80;65.60;;;;;;5116936;28;20054;-73
2022/07/19 05:44:35;;;;;;;10.57;9.40;;;21.80;65.60;;;;;;5099002;28;20095;-73
2022/07/19 05:47:00;;;;;;;15.93;10.27;;;21.90;65.30;;;;;;5116872;28;20080;-72
2022/07/19 05:49:26;;;;;;;13.65;9.85;;;21.90;65.70;;;;;;5098930;28;20123;-73
2022/07/19 05:51:51;;;;;;;12.63;9.63;;;22.00;65.30;;;;;;5082179;28;20040;-73
2022/07/19 05:54:17;;;;;;;13.77;10.73;;;22.00;64.90;;;;;;5116723;28;20028;-73
2022/07/19 05:56:44;;;;;;;13.52;9.82;;;22.10;64.40;;;;;;5098879;28;20031;-73
2022/07/19 05:59:10;;;;;;;13.95;10.13;;;22.10;64.80;;;;;;5116671;28;20024;-73
2022/07/19 06:01:35;;;;;;;17.80;10.75;;;22.20;64.70;;;;;;5116579;28;20496;-73
2022/07/19 06:04:01;;;;;;;13.70;10.45;;;22.20;64.10;;;;;;5098367;28;20095;-73
2022/07/19 06:06:30;;;;;;;15.82;9.95;;;22.20;63.80;;;;;;5116506;28;20058;-73
2022/07/19 06:08:56;;;;;;;12.23;9.98;;;22.30;63.50;;;;;;5116444;28;20077;-73
2022/07/19 06:11:23;;;;;;;14.38;9.80;;;22.30;63.60;;;;;;5116381;28;20021;-73
2022/07/19 06:13:49;;;;;;;11.90;9.93;;;22.40;63.20;;;;;;5081746;28;20044;-73
2022/07/19 06:16:15;;;;;;;17.08;10.43;;;22.40;63.00;;;;;;5116275;28;20032;-73
2022/07/19 06:18:41;;;;;;;15.25;9.70;;;22.50;62.50;;;;;;5115649;28;20031;-73
2022/07/19 06:21:09;;;;;;;10.90;9.38;;;22.50;62.80;;;;;;5116231;28;20024;-73
2022/07/19 06:23:36;;;;;;;11.98;9.68;;;22.60;62.60;;;;;;5116132;28;20032;-73
2022/07/19 06:26:03;;;;;;;14.20;10.05;;;22.70;62.40;;;;;;5116034;28;20051;-73
2022/07/19 06:28:28;;;;;;;16.63;9.68;;;22.80;62.30;;;;;;5116015;28;20016;-74
2022/07/19 06:30:54;;;;;;;15.02;10.23;;;22.80;62.10;;;;;;5116057;28;20028;-73
2022/07/19 06:33:20;;;;;;;17.05;10.48;;;22.90;61.90;;;;;;5115986;28;20061;-73
2022/07/19 06:35:46;;;;;;;16.13;10.93;;;23.00;62.20;;;;;;5115922;28;20076;-73
2022/07/19 06:38:12;;;;;;;14.27;10.15;;;23.00;61.80;;;;;;5115883;28;20028;-74
2022/07/19 06:40:37;;;;;;;15.10;10.15;;;23.20;61.80;;;;;;5115832;28;20021;-74
2022/07/19 06:43:03;;;;;;;16.52;10.38;;;23.20;61.20;;;;;;5115793;28;20036;-74
2022/07/19 06:45:29;;;;;;;15.70;10.23;;;23.20;61.40;;;;;;5097843;28;20056;-74
2022/07/19 06:47:54;;;;;;;13.23;10.63;;;23.30;61.30;;;;;;5115744;28;20021;-75
2022/07/19 06:50:21;;;;;;;15.52;10.38;;;23.40;61.50;;;;;;5115800;28;20471;-74
2022/07/19 06:52:47;;;;;;;20.08;11.32;;;23.50;60.00;;;;;;5115617;28;20036;-74
2022/07/19 06:55:13;;;;;;;13.13;11.15;;;23.50;59.40;;;;;;5115542;28;20028;-74
2022/07/19 06:57:39;;;;;;;17.38;11.68;;;23.50;59.40;;;;;;5115487;28;20028;-74
2022/07/19 07:00:07;;;;;;;18.52;12.65;;;23.60;59.10;;;;;;5115465;28;20081;-74
2022/07/19 07:02:33;;;;;;;17.05;12.85;;;23.60;58.60;;;;;;5115423;28;20024;-74
2022/07/19 07:04:59;;;;;;;16.55;12.02;;;23.70;59.60;;;;;;5115078;28;20062;-74
2022/07/19 07:07:24;;;;;;;16.35;13.68;;;23.80;59.40;;;;;;5115309;28;20058;-74
2022/07/19 07:09:50;;;;;;;17.20;13.65;;;23.90;58.80;;;;;;5115331;28;20032;-74
2022/07/19 07:12:16;;;;;;;17.63;13.18;;;23.90;58.50;;;;;;5080598;28;20043;-74
2022/07/19 07:14:41;;;;;;;20.27;12.88;;;24.00;58.00;;;;;;5097587;28;20027;-74
2022/07/19 07:17:07;;;;;;;19.95;13.32;;;24.00;57.60;;;;;;5097349;28;20036;-73
2022/07/19 07:19:32;;;;;;;15.60;12.65;;;24.10;58.10;;;;;;5115095;28;20031;-73
2022/07/19 07:22:00;;;;;;;16.25;11.90;;;24.20;57.60;;;;;;5115041;28;20039;-74
2022/07/19 07:24:26;;;;;;;12.73;11.32;;;24.30;57.20;;;;;;5115062;28;20031;-74
2022/07/19 07:26:52;;;;;;;16.90;10.93;;;24.30;57.40;;;;;;5114923;28;20035;-74
2022/07/19 07:29:18;;;;;;;14.52;11.40;;;24.40;57.10;;;;;;5114851;28;20016;-74
2022/07/19 07:31:43;;;;;;;32.42;11.77;;;24.50;57.20;;;;;;5095884;28;20054;-74
2022/07/19 07:34:10;;;;;;;15.68;10.18;;;24.60;58.10;;;;;;5114785;28;20028;-74
2022/07/19 07:36:35;;;;;;;14.30;9.57;;;24.70;57.30;;;;;;5114751;28;20057;-74
2022/07/19 07:39:01;;;;;;;12.77;8.25;;;24.70;57.90;;;;;;5096869;28;20032;-73
2022/07/19 07:41:27;;;;;;;12.65;8.02;;;24.90;58.30;;;;;;5114663;28;20024;-74
2022/07/19 07:43:52;;;;;;;12.68;7.93;;;24.90;57.40;;;;;;5114560;28;20051;-74
2022/07/19 07:46:19;;;;;;;11.40;6.70;;;25.10;58.10;;;;;;5079940;28;20029;-74
2022/07/19 07:48:45;;;;;;;14.80;7.50;;;25.10;55.90;;;;;;5114493;28;20038;-74
2022/07/19 07:51:10;;;;;;;11.82;7.00;;;25.20;55.60;;;;;;5114480;28;20044;-74
2022/07/19 07:53:36;;;;;;;11.88;7.28;;;25.30;55.80;;;;;;5114596;28;20084;-74
2022/07/19 07:56:03;;;;;;;10.57;6.72;;;25.40;55.50;;;;;;5096592;28;20032;-73
2022/07/19 07:58:28;;;;;;;10.90;6.18;;;25.50;55.60;;;;;;5114336;28;20028;-74
2022/07/19 08:00:54;;;;;;;8.25;6.30;;;25.60;55.50;;;;;;5096454;28;20092;-73
2022/07/19 08:03:20;;;;;;;9.93;6.22;;;25.70;54.70;;;;;;5114258;28;20032;-74
2022/07/19 08:05:48;;;;;;;12.63;6.00;;;25.70;54.90;;;;;;5114122;28;20040;-74
2022/07/19 08:08:17;;;;;;;10.98;7.53;;;25.80;54.40;;;;;;5114159;28;20012;-74
2022/07/19 08:10:43;;;;;;;10.25;7.38;;;25.90;54.10;;;;;;5114125;28;20020;-74
2022/07/19 08:13:09;;;;;;;10.32;6.63;;;26.00;55.30;;;;;;5114193;28;20020;-74
2022/07/19 08:15:38;;;;;;;8.10;5.53;;;26.10;54.50;;;;;;5096445;28;20039;-74
2022/07/19 08:18:04;;;;;;;9.57;5.63;;;26.20;53.80;;;;;;5113988;28;20016;-74
2022/07/19 08:20:30;;;;;;;8.95;6.05;;;26.30;53.30;;;;;;5113996;28;20032;-74
2022/07/19 08:22:55;;;;;;;9.18;5.88;;;26.40;53.60;;;;;;5095965;28;20028;-73
2022/07/19 08:25:21;;;;;;;9.15;6.40;;;26.50;53.30;;;;;;5096009;28;20020;-73
2022/07/19 08:27:47;;;;;;;11.23;6.40;;;26.60;53.60;;;;;;5095817;28;20356;-73
2022/07/19 08:30:13;;;;;;;10.60;6.40;;;26.60;52.60;;;;;;5113803;28;20043;-74
2022/07/19 08:32:40;;;;;;;10.15;5.95;;;26.70;53.10;;;;;;5113790;28;20031;-74
2022/07/19 08:35:07;;;;;;;10.35;6.57;;;26.80;52.80;;;;;;5113754;28;20036;-73
2022/07/19 08:37:34;;;;;;;9.90;5.68;;;26.90;53.50;;;;;;5113747;28;20152;-74
2022/07/19 08:39:59;;;;;;;7.63;5.85;;;27.00;53.00;;;;;;5113723;28;20031;-74
2022/07/19 08:42:25;;;;;;;12.00;7.85;;;27.10;52.90;;;;;;5113379;28;20115;-74
2022/07/19 08:44:52;;;;;;;12.10;7.40;;;27.20;54.10;;;;;;5095733;28;20096;-74
2022/07/19 08:47:19;;;;;;;15.25;6.28;;;27.20;54.40;;;;;;5095681;28;20024;-74
2022/07/19 08:49:45;;;;;;;9.88;6.05;;;27.40;52.70;;;;;;5113599;28;20032;-73
2022/07/19 08:52:12;;;;;;;12.82;6.07;;;27.40;52.70;;;;;;5095784;28;20035;-74
2022/07/19 08:54:38;;;;;;;8.70;6.50;;;27.50;52.40;;;;;;5113510;28;20016;-73
2022/07/19 08:59:49;;;;;;;13.00;6.40;;;27.70;52.20;;;;;;5113614;28;20042;-73
2022/07/19 09:02:14;;;;;;;9.32;6.20;;;27.80;52.90;;;;;;5095636;28;20064;-74
2022/07/19 09:04:40;;;;;;;8.38;5.38;;;27.90;53.30;;;;;;5095471;28;20059;-74
2022/07/19 09:07:06;;;;;;;7.22;5.10;;;28.00;53.00;;;;;;5113421;28;20024;-74
2022/07/19 09:09:35;;;;;;;9.02;5.45;;;28.00;49.80;;;;;;5113344;28;20028;-74
2022/07/19 09:12:02;;;;;;;6.55;4.78;;;28.10;50.40;;;;;;5113332;28;20021;-74
2022/07/19 09:14:30;;;;;;;6.93;4.93;;;28.20;51.40;;;;;;5113357;28;20024;-74
2022/07/19 09:17:16;;;;;;;7.10;5.93;;;28.30;48.40;;;;;;5113179;28;20075;-74
2022/07/19 09:19:47;;;;;;;9.25;5.97;;;28.40;49.30;;;;;;5113487;28;20107;-73
2022/07/19 09:22:15;;;;;;;10.02;5.00;;;28.50;50.80;;;;;;5095403;28;20032;-74
2022/07/19 09:24:49;;;;;;;8.90;5.70;;;28.60;49.50;;;;;;5113178;28;20020;-74
2022/07/19 09:27:17;;;;;;;10.77;5.40;;;28.70;50.20;;;;;;5113373;28;20016;-74
2022/07/19 09:29:45;;;;;;;15.27;6.53;;;28.80;51.10;;;;;;5113154;28;20036;-74
2022/07/19 09:32:16;;;;;;;10.13;6.03;;;29.00;50.40;;;;;;5095312;28;20088;-74
2022/07/19 09:34:52;;;;;;;7.68;5.45;;;29.10;51.20;;;;;;5113183;28;20020;-73
2022/07/19 09:37:23;;;;;;;11.07;5.30;;;29.10;49.90;;;;;;5113149;28;20074;-73
2022/07/19 09:39:52;;;;;;;10.07;5.55;;;29.10;50.10;;;;;;5113297;28;20028;-74
2022/07/19 09:42:34;;;;;;;10.85;4.80;;;29.20;50.60;;;;;;5113086;28;20039;-73
2022/07/19 09:45:03;;;;;;;8.63;4.80;;;29.30;51.30;;;;;;5113059;28;20049;-73
2022/07/19 09:47:39;;;;;;;10.07;5.00;;;29.40;51.00;;;;;;5095104;28;20043;-74
2022/07/19 09:50:08;;;;;;;10.25;4.85;;;29.50;51.00;;;;;;5113190;28;20059;-74
2022/07/19 09:52:35;;;;;;;9.05;4.90;;;29.60;50.30;;;;;;5095114;28;20084;-74
2022/07/19 09:55:04;;;;;;;8.98;4.97;;;29.70;48.90;;;;;;5115412;28;20035;-74
2022/07/19 09:57:34;;;;;;;7.95;4.80;;;29.80;47.70;;;;;;5098776;28;20032;-74
2022/07/19 10:00:01;;;;;;;6.28;4.35;;;29.90;49.10;;;;;;5098917;28;20068;-74
2022/07/19 10:02:29;;;;;;;7.80;4.88;;;30.00;47.40;;;;;;5116545;28;20028;-74
2022/07/19 10:04:56;;;;;;;7.00;4.50;;;30.10;47.90;;;;;;5116259;28;20487;-74
2022/07/19 10:07:23;;;;;;;7.63;4.07;;;30.20;47.90;;;;;;5116498;28;20033;-74
2022/07/19 10:09:50;;;;;;;6.20;4.47;;;30.30;47.20;;;;;;5116487;28;20032;-74
2022/07/19 10:12:16;;;;;;;7.80;4.47;;;30.30;46.60;;;;;;5116424;28;20036;-74
2022/07/19 10:14:42;;;;;;;9.25;4.22;;;30.40;46.10;;;;;;5081731;28;20027;-74
2022/07/19 10:17:19;;;;;;;6.68;4.15;;;30.50;45.60;;;;;;5116291;28;20076;-74
2022/07/19 10:19:47;;;;;;;11.98;4.25;;;30.60;45.10;;;;;;5116247;28;20039;-74
2022/07/19 10:22:24;;;;;;;8.48;4.20;;;30.60;45.50;;;;;;5116237;28;20051;-74
2022/07/19 10:25:00;;;;;;;7.60;4.40;;;30.70;45.70;;;;;;5098129;28;20028;-74
2022/07/19 10:27:25;;;;;;;8.60;3.72;;;30.80;42.40;;;;;;5098242;28;20602;-74
2022/07/19 10:30:11;;;;;;;5.32;3.70;;;30.80;41.80;;;;;;5116022;28;20051;-74
2022/07/19 10:32:41;;;;;;;6.30;3.65;;;31.00;42.50;;;;;;5064762;28;20091;-74
2022/07/19 10:35:25;;;;;;;9.88;3.75;;;31.00;42.90;;;;;;5115978;28;20020;-74
2022/07/19 10:37:53;;;;;;;9.43;4.47;;;31.20;41.80;;;;;;5115925;28;20032;-74
2022/07/19 10:40:40;;;;;;;5.60;3.78;;;31.30;38.60;;;;;;5115875;28;20020;-74
2022/07/19 10:43:08;;;;;;;8.98;3.80;;;31.40;39.50;;;;;;5115846;28;20020;-74
2022/07/19 10:45:34;;;;;;;7.35;3.80;;;31.50;39.70;;;;;;5115728;28;20029;-74
2022/07/19 10:48:05;;;;;;;6.05;3.92;;;31.50;39.10;;;;;;5097882;28;20024;-74
2022/07/19 10:51:00;;;;;;;6.07;3.33;;;31.60;39.60;;;;;;5115787;28;20020;-74
2022/07/19 10:54:00;;;;;;;8.27;3.53;;;31.70;36.40;;;;;;5076657;28;20036;-74
2022/07/19 10:56:33;;;;;;;9.75;4.07;;;31.80;36.20;;;;;;5110049;28;20055;-74
2022/07/19 10:59:02;;;;;;;5.78;3.60;;;31.90;36.30;;;;;;5115586;28;20023;-74
2022/07/19 11:01:30;;;;;;;7.70;3.95;;;32.00;35.70;;;;;;5115482;28;20375;-74
2022/07/19 11:04:29;;;;;;;8.30;3.67;;;32.00;35.60;;;;;;5115216;28;20043;-74
2022/07/19 11:07:14;;;;;;;11.35;3.88;;;32.10;36.80;;;;;;5115367;28;20062;-74
2022/07/19 11:09:46;;;;;;;6.45;3.67;;;32.20;36.50;;;;;;5115294;28;20086;-74
2022/07/19 11:12:30;;;;;;;7.65;4.20;;;32.30;38.80;;;;;;5115320;28;20023;-74
2022/07/19 11:14:57;;;;;;;6.13;3.78;;;32.50;36.80;;;;;;5115203;28;20057;-74
2022/07/19 11:17:23;;;;;;;9.60;3.83;;;32.50;36.20;;;;;;5115170;28;20057;-74
2022/07/19 11:20:04;;;;;;;7.57;3.88;;;32.60;35.80;;;;;;5115126;28;20031;-74
2022/07/19 11:22:39;;;;;;;4.30;3.33;;;32.70;36.10;;;;;;5115072;28;20035;-74
2022/07/19 11:25:05;;;;;;;6.40;3.50;;;32.80;35.30;;;;;;5115148;28;20024;-74
2022/07/19 11:27:32;;;;;;;7.43;3.70;;;32.70;35.50;;;;;;5114972;28;20021;-74
2022/07/19 11:30:00;;;;;;;5.60;3.65;;;32.80;35.20;;;;;;5096939;28;20020;-74
2022/07/19 11:32:26;;;;;;;5.80;3.58;;;32.90;32.90;;;;;;5114848;28;20024;-74
2022/07/19 11:34:58;;;;;;;6.28;3.22;;;32.90;34.10;;;;;;5114905;28;20026;-74
2022/07/19 11:37:26;;;;;;;5.82;2.95;;;32.90;33.90;;;;;;5114753;28;20023;-73
2022/07/19 11:39:51;;;;;;;7.20;3.10;;;32.90;31.90;;;;;;5114793;28;20027;-73
2022/07/19 11:42:32;;;;;;;5.72;3.00;;;33.00;32.30;;;;;;5114721;28;20052;-74
2022/07/19 11:44:58;;;;;;;5.07;2.88;;;33.10;31.60;;;;;;5114474;28;20028;-73
2022/07/19 11:47:23;;;;;;;7.47;2.67;;;33.20;30.50;;;;;;5114548;28;20037;-73
2022/07/19 11:49:49;;;;;;;7.20;2.58;;;33.30;31.70;;;;;;5096614;28;20030;-73
2022/07/19 11:52:15;;;;;;;3.22;2.58;;;33.40;30.90;;;;;;5114501;28;20054;-73
2022/07/19 11:54:41;;;;;;;5.65;2.97;;;33.40;30.80;;;;;;5114439;28;20032;-73
2022/07/19 11:57:26;;;;;;;3.70;2.47;;;33.50;29.20;;;;;;5114382;28;20039;-73
2022/07/19 11:59:52;;;;;;;3.92;2.83;;;33.60;28.40;;;;;;5114298;28;20038;-73
2022/07/19 12:02:18;;;;;;;12.73;3.10;;;33.60;28.00;;;;;;5114301;28;20028;-74
2022/07/19 12:04:43;;;;;;;8.05;2.75;;;33.60;30.20;;;;;;5096114;28;20044;-74
2022/07/19 12:07:09;;;;;;;6.03;2.55;;;33.80;29.10;;;;;;5114210;28;20031;-73
2022/07/19 12:09:36;;;;;;;3.28;2.58;;;33.90;29.90;;;;;;5114157;28;20024;-73
2022/07/19 12:12:13;;;;;;;4.95;2.70;;;33.90;29.50;;;;;;5114138;28;20356;-73
2022/07/19 12:14:40;;;;;;;6.57;2.70;;;34.00;29.40;;;;;;5114144;28;20023;-73
2022/07/19 12:17:12;;;;;;;7.80;2.60;;;34.00;28.50;;;;;;5113541;28;20049;-73
2022/07/19 12:19:40;;;;;;;4.03;2.42;;;34.10;28.60;;;;;;5113987;28;20028;-73
2022/07/19 12:22:06;;;;;;;5.78;2.35;;;34.10;27.80;;;;;;5113988;28;20028;-73
2022/07/19 12:24:43;;;;;;;6.15;2.60;;;34.20;27.30;;;;;;5113877;28;20035;-73
2022/07/19 12:27:09;;;;;;;4.38;2.60;;;34.20;28.10;;;;;;5113956;28;20051;-73
2022/07/19 12:29:40;;;;;;;4.70;2.42;;;34.30;28.30;;;;;;5113800;28;20020;-73
2022/07/19 12:32:07;;;;;;;;;;;34.40;29.00;;;;;;5096356;28;20035;-73
2022/07/19 12:34:56;;;;;;;4.68;2.67;;;34.40;27.40;;;;;;5113592;28;19904;-73
2022/07/19 12:37:37;;;;;;;5.38;2.80;;;34.50;27.70;;;;;;5113804;28;20054;-73
2022/07/19 12:40:22;;;;;;;6.72;2.60;;;34.50;28.20;;;;;;5113906;28;20024;-73
2022/07/19 12:42:59;;;;;;;5.75;2.60;;;34.60;26.90;;;;;;5113866;28;20117;-73